createdAt,value
2022-08-10T00:00:22.683Z,61.81
2022-08-10T00:01:26.686Z,61.49
2022-08-10T00:02:30.667Z,61.32
2022-08-10T00:03:35.757Z,61.36
2022-08-10T00:04:39.292Z,61.52
2022-08-10T00:05:43.850Z,62.07
2022-08-10T00:06:48.513Z,61.70
2022-08-10T00:07:52.966Z,62.29
2022-08-10T00:08:56.890Z,61.74
2022-08-10T00:10:00.739Z,61.54
2022-08-10T00:11:04.735Z,61.82
2022-08-10T00:12:13.698Z,61.82
2022-08-10T00:38:17.266Z,61.92
2022-08-10T00:39:21.033Z,62.59
2022-08-10T00:40:37.132Z,62.64
2022-08-10T00:41:31.614Z,62.73
2022-08-10T00:42:36.280Z,62.77
2022-08-10T00:43:41.322Z,62.61
2022-08-10T00:44:51.326Z,62.46
2022-08-10T00:45:59.191Z,62.50
2022-08-10T00:47:01.909Z,62.45
2022-08-10T00:48:09.474Z,62.55
2022-08-10T00:49:14.598Z,62.62
2022-08-10T00:50:19.783Z,62.47
2022-08-10T00:51:47.961Z,62.61
2022-08-10T00:52:37.879Z,62.81
2022-08-10T00:53:43.598Z,62.76
2022-08-10T00:54:49.111Z,62.59
2022-08-10T00:57:12.372Z,62.63
2022-08-10T00:57:17.886Z,62.36
2022-08-10T00:58:16.484Z,62.58
2022-08-10T00:59:21.970Z,62.74
2022-08-10T01:00:26.731Z,62.74
2022-08-10T01:02:10.864Z,62.40
2022-08-10T01:02:51.893Z,62.31
2022-08-10T01:04:57.891Z,62.32
2022-08-10T01:05:09.791Z,62.32
2022-08-10T01:06:37.062Z,62.42
2022-08-10T01:07:55.329Z,62.33
2022-08-10T01:09:20.561Z,62.31
2022-08-10T01:10:40.990Z,62.78
2022-08-10T01:12:38.066Z,62.71
2022-08-10T01:13:26.123Z,62.26
2022-08-10T01:14:57.456Z,62.65
2022-08-10T01:16:14.805Z,62.33
2022-08-10T01:17:22.031Z,62.86
2022-08-10T01:18:53.322Z,63.18
2022-08-10T01:20:06.747Z,62.67
2022-08-10T01:21:53.966Z,62.40
2022-08-10T01:23:22.904Z,62.16
2022-08-10T01:26:10.772Z,62.87
2022-08-10T01:27:33.094Z,62.89
2022-08-10T01:29:07.061Z,62.36
2022-08-10T01:30:15.672Z,62.35
2022-08-10T01:31:22.299Z,62.99
2022-08-10T01:32:36.443Z,63.14
2022-08-10T01:34:02.958Z,62.96
2022-08-10T01:35:21.761Z,62.76
2022-08-10T01:36:39.545Z,62.64
2022-08-10T01:37:52.358Z,62.46
2022-08-10T01:38:53.857Z,62.18
2022-08-10T01:40:04.103Z,62.21
2022-08-10T01:41:11.625Z,62.38
2022-08-10T01:42:18.817Z,62.19
2022-08-10T01:43:26.691Z,62.45
2022-08-10T01:44:41.259Z,62.11
2022-08-10T01:45:49.152Z,62.03
2022-08-10T01:46:57.912Z,61.91
2022-08-10T01:48:23.399Z,62.44
2022-08-10T01:49:30.014Z,62.49
2022-08-10T01:50:58.989Z,62.17
2022-08-10T01:51:55.690Z,62.07
2022-08-10T01:53:06.478Z,62.14
2022-08-10T01:54:13.308Z,62.49
2022-08-10T01:55:20.331Z,62.53
2022-08-10T01:56:28.758Z,62.66
2022-08-10T01:57:33.273Z,62.81
2022-08-10T01:58:39.346Z,62.83
2022-08-10T01:59:58.783Z,63.13
2022-08-10T02:00:57.657Z,62.93
2022-08-10T02:02:06.846Z,62.94
2022-08-10T02:03:13.736Z,62.96
2022-08-10T02:04:20.283Z,62.79
2022-08-10T02:05:27.051Z,62.71
2022-08-10T02:06:33.211Z,62.79
2022-08-10T02:07:39.110Z,62.79
2022-08-10T02:08:46.383Z,63.05
2022-08-10T02:09:57.119Z,63.08
2022-08-10T02:11:02.156Z,63.22
2022-08-10T02:12:10.249Z,63.27
2022-08-10T02:13:17.404Z,63.12
2022-08-10T02:14:26.232Z,62.93
2022-08-10T02:15:38.063Z,63.38
2022-08-10T02:16:46.513Z,63.08
2022-08-10T02:17:58.443Z,63.59
2022-08-10T02:19:02.143Z,64.15
2022-08-10T02:20:18.949Z,64.21
2022-08-10T02:21:28.538Z,64.19
2022-08-10T02:22:38.058Z,64.28
2022-08-10T02:23:42.971Z,64.17
2022-08-10T02:24:50.404Z,64.48
2022-08-10T02:25:56.063Z,64.53
2022-08-10T02:26:59.794Z,64.39
2022-08-10T02:28:06.849Z,64.51
2022-08-10T02:29:13.983Z,64.68
2022-08-10T02:55:18.188Z,66.95
2022-08-10T02:56:35.312Z,67.17
2022-08-10T02:58:15.276Z,67.97
2022-08-10T02:58:49.994Z,68.44
2022-08-10T02:59:57.018Z,68.51
2022-08-10T03:01:05.401Z,68.61
2022-08-10T03:02:20.230Z,68.69
2022-08-10T03:03:30.627Z,68.47
2022-08-10T03:04:55.742Z,68.58
2022-08-10T03:05:44.343Z,68.76
2022-08-10T03:06:57.612Z,69.10
2022-08-10T03:08:04.924Z,69.04
2022-08-10T03:09:12.121Z,69.50
2022-08-10T03:12:34.839Z,70.01
2022-08-10T03:13:06.317Z,69.51
2022-08-10T03:14:11.700Z,69.63
2022-08-10T03:15:20.503Z,69.42
2022-08-10T03:16:33.098Z,69.40
2022-08-10T03:17:36.046Z,70.00
2022-08-10T03:18:40.297Z,70.05
2022-08-10T03:20:34.223Z,70.38
2022-08-10T03:20:56.163Z,70.10
2022-08-10T03:22:00.371Z,70.40
2022-08-10T03:23:07.733Z,70.35
2022-08-10T03:24:30.229Z,69.88
2022-08-10T03:25:29.130Z,69.91
2022-08-10T03:26:37.418Z,70.00
2022-08-10T03:27:43.288Z,69.95
2022-08-10T03:30:32.404Z,70.05
2022-08-10T03:31:06.037Z,70.54
2022-08-10T03:32:16.634Z,70.68
2022-08-10T03:33:27.258Z,70.52
2022-08-10T03:34:33.862Z,70.42
2022-08-10T03:35:37.921Z,70.43
2022-08-10T03:36:45.253Z,69.82
2022-08-10T03:37:49.349Z,70.14
2022-08-10T03:38:55.119Z,70.44
2022-08-10T03:39:58.860Z,70.42
2022-08-10T03:41:05.156Z,70.84
2022-08-10T03:42:14.401Z,70.11
2022-08-10T03:43:21.008Z,70.24
2022-08-10T03:44:28.257Z,70.91
2022-08-10T03:45:54.518Z,71.05
2022-08-10T03:46:47.486Z,71.00
2022-08-10T03:47:55.896Z,70.54
2022-08-10T03:49:04.777Z,70.22
2022-08-10T03:50:45.392Z,70.38
2022-08-10T03:51:20.116Z,70.55
2022-08-10T03:52:24.120Z,70.79
2022-08-10T03:54:05.888Z,71.32
2022-08-10T03:54:35.004Z,71.60
2022-08-10T03:56:26.864Z,71.22
2022-08-10T03:56:52.348Z,71.56
2022-08-10T03:57:56.220Z,71.54
2022-08-10T04:00:13.632Z,71.44
2022-08-10T04:01:18.601Z,71.25
2022-08-10T04:02:44.858Z,71.95
2022-08-10T04:03:29.342Z,71.82
2022-08-10T04:04:35.450Z,71.17
2022-08-10T04:05:42.925Z,70.66
2022-08-10T04:06:45.856Z,70.97
2022-08-10T04:07:52.783Z,71.32
2022-08-10T04:08:56.417Z,72.48
2022-08-10T04:11:15.250Z,71.97
2022-08-10T04:12:18.832Z,72.15
2022-08-10T04:13:23.954Z,71.76
2022-08-10T04:14:38.293Z,72.45
2022-08-10T04:15:35.506Z,72.50
2022-08-10T04:16:42.281Z,72.47
2022-08-10T04:18:00.186Z,72.19
2022-08-10T04:18:55.661Z,72.07
2022-08-10T04:20:01.306Z,71.58
2022-08-10T04:21:17.401Z,71.61
2022-08-10T04:22:27.867Z,71.67
2022-08-10T04:23:34.713Z,72.01
2022-08-10T04:24:43.813Z,71.83
2022-08-10T04:25:50.881Z,71.42
2022-08-10T04:26:55.941Z,71.77
2022-08-10T04:28:03.261Z,72.41
2022-08-10T04:29:07.208Z,71.87
2022-08-10T04:30:11.633Z,71.43
2022-08-10T04:31:17.644Z,71.63
2022-08-10T04:32:23.751Z,71.14
2022-08-10T04:33:29.537Z,71.00
2022-08-10T04:34:35.476Z,70.39
2022-08-10T04:35:41.319Z,70.14
2022-08-10T04:36:50.475Z,69.51
2022-08-10T04:37:55.599Z,69.74
2022-08-10T04:39:01.570Z,69.50
2022-08-10T04:40:28.815Z,68.55
2022-08-10T04:41:16.020Z,68.19
2022-08-10T04:42:20.296Z,67.91
2022-08-10T04:43:24.697Z,67.06
2022-08-10T04:44:28.194Z,66.51
2022-08-10T04:45:48.647Z,66.65
2022-08-10T04:46:56.437Z,66.13
2022-08-10T04:47:57.282Z,65.62
2022-08-10T04:48:59.762Z,65.03
2022-08-10T04:49:57.084Z,64.88
2022-08-10T04:51:01.912Z,66.43
2022-08-10T04:52:07.731Z,65.28
2022-08-10T04:54:29.898Z,65.16
2022-08-10T04:55:34.592Z,65.48
2022-08-10T04:56:39.983Z,65.24
2022-08-10T04:57:43.316Z,64.57
2022-08-10T04:58:48.712Z,65.08
2022-08-10T04:59:54.293Z,64.37
2022-08-10T05:00:58.196Z,64.20
2022-08-10T05:02:27.951Z,63.61
2022-08-10T05:03:08.839Z,62.55
2022-08-10T05:04:36.201Z,62.42
2022-08-10T05:05:19.979Z,63.00
2022-08-10T05:06:25.519Z,62.81
2022-08-10T05:07:29.229Z,62.18
2022-08-10T05:08:33.861Z,61.85
2022-08-10T05:10:01.359Z,61.12
2022-08-10T05:10:49.354Z,60.91
2022-08-10T05:11:52.857Z,60.93
2022-08-10T05:12:56.397Z,59.92
2022-08-10T05:13:59.975Z,59.04
2022-08-10T05:15:07.614Z,58.05
2022-08-10T05:16:12.101Z,56.19
2022-08-10T05:17:17.556Z,52.86
2022-08-10T05:18:28.248Z,52.56
2022-08-10T05:20:04.006Z,53.65
2022-08-10T05:20:39.525Z,55.11
2022-08-10T05:22:04.662Z,57.56
2022-08-10T05:22:53.868Z,57.11
2022-08-10T05:23:57.624Z,56.56
2022-08-10T05:25:01.697Z,56.83
2022-08-10T05:26:05.903Z,56.91
2022-08-10T05:27:10.058Z,56.04
2022-08-10T05:28:17.350Z,56.04
2022-08-10T05:29:21.210Z,54.28
2022-08-10T05:30:27.101Z,54.16
2022-08-10T05:31:34.440Z,54.22
2022-08-10T05:32:57.164Z,55.76
2022-08-10T05:33:44.047Z,56.31
2022-08-10T05:34:47.092Z,57.55
2022-08-10T05:35:58.034Z,58.58
2022-08-10T05:36:58.592Z,58.65
2022-08-10T05:38:09.115Z,58.94
2022-08-10T05:39:12.143Z,59.16
2022-08-10T05:40:19.052Z,59.58
2022-08-10T05:41:26.653Z,60.40
2022-08-10T05:42:31.783Z,60.46
2022-08-10T05:43:35.113Z,60.76
2022-08-10T05:44:40.581Z,60.71
2022-08-10T05:46:16.810Z,61.10
2022-08-10T05:46:51.369Z,61.02
2022-08-10T05:48:56.965Z,60.70
2022-08-10T05:49:02.884Z,60.86
2022-08-10T05:50:07.850Z,60.86
2022-08-10T05:51:14.795Z,61.24
2022-08-10T05:52:21.607Z,61.61
2022-08-10T05:54:03.023Z,62.41
2022-08-10T05:54:29.820Z,62.60
2022-08-10T05:55:34.109Z,62.62
2022-08-10T05:56:55.787Z,62.57
2022-08-10T05:57:47.279Z,62.26
2022-08-10T05:58:50.993Z,63.15
2022-08-10T06:00:32.782Z,63.26
2022-08-10T06:01:16.722Z,63.48
2022-08-10T06:02:33.316Z,63.85
2022-08-10T06:03:36.430Z,63.76
2022-08-10T06:04:44.058Z,63.75
2022-08-10T06:05:48.994Z,63.33
2022-08-10T06:08:19.649Z,64.00
2022-08-10T06:09:25.761Z,63.70
2022-08-10T06:10:35.242Z,64.13
2022-08-10T06:12:26.978Z,64.67
2022-08-10T06:12:55.309Z,65.11
2022-08-10T06:14:19.277Z,65.19
2022-08-10T06:15:52.121Z,65.29
2022-08-10T06:16:34.887Z,66.18
2022-08-10T06:17:39.150Z,66.48
2022-08-10T06:18:47.005Z,66.84
2022-08-10T06:19:51.016Z,66.57
2022-08-10T06:20:57.497Z,66.90
2022-08-10T06:22:03.481Z,67.76
2022-08-10T06:23:06.378Z,67.75
2022-08-10T06:24:11.714Z,67.22
2022-08-10T06:26:23.721Z,66.80
2022-08-10T06:27:34.448Z,67.07
2022-08-10T06:28:38.650Z,67.07
2022-08-10T06:29:45.497Z,66.66
2022-08-10T06:30:53.583Z,66.74
2022-08-10T06:32:00.358Z,66.67
2022-08-10T06:33:06.958Z,67.65
2022-08-10T06:34:13.213Z,67.06
2022-08-10T06:35:19.400Z,67.07
2022-08-10T06:36:27.853Z,66.37
2022-08-10T06:37:34.245Z,65.85
2022-08-10T06:38:41.367Z,66.00
2022-08-10T06:39:46.729Z,65.33
2022-08-10T06:40:57.187Z,65.75
2022-08-10T06:42:17.970Z,65.85
2022-08-10T06:43:27.447Z,65.09
2022-08-10T06:44:35.257Z,65.23
2022-08-10T06:46:07.851Z,63.96
2022-08-10T06:47:00.313Z,64.54
2022-08-10T06:48:16.665Z,64.17
2022-08-10T06:49:23.990Z,63.67
2022-08-10T06:50:55.866Z,63.77
2022-08-10T06:51:57.229Z,64.25
2022-08-10T06:53:02.478Z,63.57
2022-08-10T06:54:12.667Z,63.68
2022-08-10T06:55:21.952Z,64.35
2022-08-10T06:56:36.575Z,64.06
2022-08-10T06:57:36.974Z,63.88
2022-08-10T06:58:48.738Z,64.28
2022-08-10T06:59:54.199Z,64.76
2022-08-10T07:01:04.116Z,64.65
2022-08-10T07:02:14.808Z,64.65
2022-08-10T07:03:25.250Z,64.42
2022-08-10T07:04:49.186Z,64.87
2022-08-10T07:05:56.046Z,64.75
2022-08-10T07:07:04.077Z,64.27
2022-08-10T07:08:10.774Z,64.09
2022-08-10T07:09:18.660Z,64.21
2022-08-10T07:10:26.331Z,64.02
2022-08-10T07:11:34.227Z,64.06
2022-08-10T07:12:39.835Z,63.38
2022-08-10T07:14:16.504Z,64.08
2022-08-10T07:14:53.364Z,63.90
2022-08-10T07:16:00.604Z,64.15
2022-08-10T07:17:07.289Z,63.88
2022-08-10T07:18:16.840Z,63.50
2022-08-10T07:19:27.741Z,63.13
2022-08-10T07:20:35.910Z,63.70
2022-08-10T07:21:42.940Z,63.65
2022-08-10T07:23:52.855Z,62.88
2022-08-10T07:24:00.838Z,62.92
2022-08-10T07:25:08.282Z,63.19
2022-08-10T07:26:14.448Z,63.07
2022-08-10T07:27:21.035Z,63.08
2022-08-10T07:28:25.497Z,62.68
2022-08-10T07:29:54.003Z,62.86
2022-08-10T07:30:41.378Z,62.04
2022-08-10T07:31:57.266Z,61.86
2022-08-10T07:32:56.775Z,61.45
2022-08-10T07:34:03.191Z,61.89
2022-08-10T07:35:11.026Z,61.56
2022-08-10T07:36:20.232Z,62.23
2022-08-10T07:37:25.948Z,62.22
2022-08-10T07:38:32.260Z,61.87
2022-08-10T07:40:02.852Z,61.26
2022-08-10T07:40:51.274Z,62.40
2022-08-10T07:41:57.746Z,61.94
2022-08-10T07:43:03.519Z,61.75
2022-08-10T07:44:19.697Z,62.60
2022-08-10T07:45:23.817Z,62.59
2022-08-10T07:46:30.210Z,62.28
2022-08-10T07:47:54.407Z,62.63
2022-08-10T07:49:19.132Z,62.32
2022-08-10T07:50:20.083Z,62.32
2022-08-10T07:51:24.250Z,62.38
2022-08-10T07:52:30.561Z,62.58
2022-08-10T07:53:41.864Z,62.26
2022-08-10T07:54:49.710Z,61.79
2022-08-10T07:56:07.331Z,62.05
2022-08-10T07:57:05.309Z,62.49
2022-08-10T07:58:11.836Z,62.76
2022-08-10T07:59:19.179Z,62.93
2022-08-10T08:00:27.233Z,62.83
2022-08-10T08:01:33.718Z,63.02
2022-08-10T08:02:44.133Z,63.15
2022-08-10T08:04:10.696Z,62.71
2022-08-10T08:05:07.526Z,62.48
2022-08-10T08:06:13.486Z,62.07
2022-08-10T08:07:21.518Z,61.37
2022-08-10T08:08:28.795Z,61.98
2022-08-10T08:09:37.120Z,63.21
2022-08-10T08:10:45.842Z,63.92
2022-08-10T08:11:51.522Z,64.10
2022-08-10T08:12:58.643Z,63.96
2022-08-10T08:14:04.229Z,63.12
2022-08-10T08:16:14.253Z,63.83
2022-08-10T08:16:22.367Z,63.14
2022-08-10T08:17:35.457Z,63.30
2022-08-10T08:18:38.055Z,64.00
2022-08-10T08:19:55.615Z,63.39
2022-08-10T08:20:57.046Z,62.54
2022-08-10T08:24:07.957Z,62.53
2022-08-10T08:24:10.315Z,62.31
2022-08-10T08:24:31.443Z,62.74
2022-08-10T08:25:34.022Z,63.44
2022-08-10T08:26:39.538Z,63.36
2022-08-10T08:27:49.244Z,63.32
2022-08-10T08:28:56.136Z,63.23
2022-08-10T08:30:01.349Z,62.74
2022-08-10T08:31:07.557Z,63.43
2022-08-10T08:32:16.395Z,62.89
2022-08-10T08:33:41.885Z,63.12
2022-08-10T08:34:38.064Z,61.96
2022-08-10T08:35:43.710Z,60.45
2022-08-10T08:36:54.907Z,59.71
2022-08-10T08:38:29.547Z,59.03
2022-08-10T08:39:04.179Z,58.48
2022-08-10T08:40:25.465Z,58.11
2022-08-10T08:41:44.829Z,57.74
2022-08-10T08:43:04.314Z,58.47
2022-08-10T08:44:23.144Z,59.30
2022-08-10T08:46:03.370Z,57.91
2022-08-10T08:48:03.766Z,56.85
2022-08-10T08:48:44.780Z,57.27
2022-08-10T08:50:18.751Z,56.79
2022-08-10T08:52:09.357Z,56.95
2022-08-10T08:52:58.489Z,57.76
2022-08-10T08:54:41.091Z,57.30
2022-08-10T08:56:05.581Z,57.74
2022-08-10T08:57:14.690Z,59.63
2022-08-10T08:58:36.552Z,59.83
2022-08-10T08:59:56.407Z,59.05
2022-08-10T09:01:38.178Z,60.62
2022-08-10T09:02:54.885Z,60.08
2022-08-10T09:04:19.792Z,59.63
2022-08-10T09:05:26.899Z,62.00
2022-08-10T09:08:09.126Z,60.58
2022-08-10T09:09:41.960Z,60.84
2022-08-10T09:10:58.082Z,59.54
2022-08-10T09:12:07.231Z,59.99
2022-08-10T09:13:32.977Z,60.85
2022-08-10T09:14:54.996Z,60.83
2022-08-10T09:16:33.832Z,59.31
2022-08-10T09:19:36.160Z,59.11
2022-08-10T09:20:49.672Z,59.12
2022-08-10T09:22:17.598Z,58.11
2022-08-10T09:24:02.155Z,57.97
2022-08-10T09:24:46.149Z,58.11
2022-08-10T09:25:56.444Z,58.06
2022-08-10T09:27:04.022Z,57.84
2022-08-10T09:28:11.750Z,57.96
2022-08-10T09:29:29.136Z,57.93
2022-08-10T09:31:22.058Z,58.34
2022-08-10T09:36:14.870Z,57.53
2022-08-10T09:36:24.975Z,57.18
2022-08-10T09:36:25.986Z,57.09
2022-08-10T09:36:27.000Z,57.04
2022-08-10T09:37:39.498Z,57.89
2022-08-10T09:39:02.443Z,57.23
2022-08-10T09:41:00.940Z,56.37
2022-08-10T09:41:52.423Z,55.18
2022-08-10T09:43:25.230Z,55.36
2022-08-10T09:44:33.652Z,55.43
2022-08-10T09:45:53.040Z,54.89
2022-08-10T09:48:00.782Z,53.58
2022-08-10T09:49:01.803Z,53.18
2022-08-10T09:50:14.811Z,52.93
2022-08-10T09:51:48.449Z,52.34
2022-08-10T09:54:32.109Z,52.62
2022-08-10T09:56:17.139Z,53.15
2022-08-10T09:57:44.576Z,52.06
2022-08-10T09:59:47.314Z,50.92
2022-08-10T10:00:16.282Z,50.36
2022-08-10T10:02:00.625Z,51.03
2022-08-10T10:02:44.780Z,51.25
2022-08-10T10:03:57.119Z,50.71
2022-08-10T10:05:51.221Z,50.83
2022-08-10T10:07:00.942Z,51.75
2022-08-10T10:08:08.601Z,51.24
2022-08-10T10:09:39.732Z,51.69
2022-08-10T10:10:56.969Z,52.20
2022-08-10T10:12:10.151Z,52.38
2022-08-10T10:13:50.007Z,52.92
2022-08-10T10:15:24.701Z,52.87
2022-08-10T10:18:12.439Z,54.24
2022-08-10T10:21:01.546Z,55.91
2022-08-10T10:22:28.253Z,56.12
2022-08-10T10:24:21.842Z,56.00
2022-08-10T10:25:19.941Z,55.64
2022-08-10T10:26:40.766Z,56.27
2022-08-10T10:27:48.687Z,55.66
2022-08-10T10:29:58.502Z,56.25
2022-08-10T10:30:32.945Z,56.12
2022-08-10T10:32:02.079Z,56.26
2022-08-10T10:33:27.826Z,55.64
2022-08-10T10:34:45.778Z,56.20
2022-08-10T10:35:54.196Z,56.17
2022-08-10T10:37:00.896Z,56.06
2022-08-10T10:38:08.273Z,56.14
2022-08-10T10:39:19.482Z,56.14
2022-08-10T10:40:25.666Z,55.91
2022-08-10T10:41:56.354Z,56.10
2022-08-10T10:43:29.078Z,55.70
2022-08-10T10:44:49.755Z,56.24
2022-08-10T10:47:39.364Z,55.81
2022-08-10T10:48:55.408Z,55.92
2022-08-10T10:50:30.570Z,56.21
2022-08-10T10:51:40.468Z,55.61
2022-08-10T10:53:06.929Z,55.65
2022-08-10T10:55:33.730Z,57.08
2022-08-10T10:56:49.960Z,57.42
2022-08-10T10:58:01.131Z,57.10
2022-08-10T10:59:53.719Z,56.56
2022-08-10T11:00:40.139Z,56.36
2022-08-10T11:01:58.149Z,57.57
2022-08-10T11:03:25.371Z,56.86
2022-08-10T11:04:35.508Z,56.84
2022-08-10T11:05:47.707Z,56.97
2022-08-10T11:08:29.272Z,56.81
2022-08-10T11:10:05.211Z,57.45
2022-08-10T11:10:52.697Z,58.21
2022-08-10T11:12:01.956Z,57.78
2022-08-10T11:14:25.316Z,57.46
2022-08-10T11:14:42.296Z,57.47
2022-08-10T11:16:00.292Z,57.90
2022-08-10T11:17:31.713Z,57.59
2022-08-10T11:18:49.484Z,57.51
2022-08-10T11:20:13.093Z,57.43
2022-08-10T11:21:23.182Z,57.28
2022-08-10T11:22:37.291Z,56.61
2022-08-10T11:24:44.439Z,55.99
2022-08-10T11:26:56.708Z,55.33
2022-08-10T11:28:19.014Z,54.97
2022-08-10T11:29:43.889Z,55.81
2022-08-10T11:30:52.133Z,55.06
2022-08-10T11:32:04.810Z,54.68
2022-08-10T11:33:32.940Z,54.46
2022-08-10T11:35:11.379Z,53.68
2022-08-10T11:36:38.204Z,53.69
2022-08-10T11:38:30.962Z,52.53
2022-08-10T11:39:19.706Z,52.82
2022-08-10T11:40:31.071Z,53.41
2022-08-10T11:43:17.544Z,52.34
2022-08-10T11:44:42.505Z,51.64
2022-08-10T11:45:52.477Z,52.49
2022-08-10T11:47:28.369Z,52.29
2022-08-10T11:48:52.871Z,51.47
2022-08-10T11:50:17.682Z,51.38
2022-08-10T11:51:28.157Z,50.92
2022-08-10T11:52:40.816Z,50.88
2022-08-10T11:54:04.646Z,51.44
2022-08-10T11:55:31.132Z,51.44
2022-08-10T11:56:48.467Z,51.96
2022-08-10T11:57:59.106Z,52.04
2022-08-10T11:59:22.671Z,51.94
2022-08-10T12:00:32.493Z,52.54
2022-08-10T12:01:36.310Z,52.32
2022-08-10T12:02:48.857Z,51.51
2022-08-10T12:03:56.371Z,51.44
2022-08-10T12:05:14.538Z,51.46
2022-08-10T12:06:53.656Z,51.83
2022-08-10T12:10:05.278Z,50.88
2022-08-10T12:10:05.551Z,50.10
2022-08-10T12:10:07.578Z,51.36
2022-08-10T12:11:00.929Z,50.92
2022-08-10T12:12:09.947Z,51.12
2022-08-10T12:13:26.321Z,51.35
2022-08-10T12:14:33.917Z,50.58
2022-08-10T12:15:47.651Z,50.38
2022-08-10T12:17:03.404Z,49.91
2022-08-10T12:18:13.731Z,51.08
2022-08-10T12:20:02.132Z,50.66
2022-08-10T12:20:54.623Z,51.38
2022-08-10T12:22:05.780Z,50.86
2022-08-10T12:23:23.551Z,50.60
2022-08-10T12:24:31.358Z,50.20
2022-08-10T12:25:56.348Z,49.45
2022-08-10T12:27:06.050Z,48.22
2022-08-10T12:28:49.490Z,48.18
2022-08-10T12:29:47.603Z,48.10
2022-08-10T12:30:55.420Z,48.97
2022-08-10T12:32:27.927Z,48.28
2022-08-10T12:34:02.534Z,48.61
2022-08-10T12:35:17.268Z,48.59
2022-08-10T12:36:37.487Z,49.05
2022-08-10T12:38:03.894Z,49.40
2022-08-10T12:39:18.640Z,49.73
2022-08-10T12:40:35.537Z,49.73
2022-08-10T12:41:45.791Z,50.03
2022-08-10T12:44:05.579Z,50.12
2022-08-10T12:44:19.877Z,50.42
2022-08-10T12:45:39.550Z,50.67
2022-08-10T12:46:54.077Z,50.29
2022-08-10T12:48:10.585Z,50.48
2022-08-10T12:49:24.778Z,50.72
2022-08-10T12:50:44.428Z,51.22
2022-08-10T12:51:57.852Z,50.83
2022-08-10T12:53:17.758Z,51.05
2022-08-10T12:54:32.108Z,50.40
2022-08-10T12:55:34.825Z,50.38
2022-08-10T12:56:48.542Z,49.54
2022-08-10T12:57:58.002Z,49.57
2022-08-10T12:59:07.782Z,49.41
2022-08-10T13:00:17.601Z,49.22
2022-08-10T13:01:21.054Z,49.61
2022-08-10T13:02:29.687Z,49.53
2022-08-10T13:04:20.662Z,50.05
2022-08-10T13:04:44.211Z,50.69
2022-08-10T13:06:01.991Z,50.88
2022-08-10T13:06:56.319Z,51.60
2022-08-10T13:08:26.388Z,51.42
2022-08-10T13:09:30.758Z,51.48
2022-08-10T13:10:38.703Z,51.98
2022-08-10T13:12:44.946Z,51.80
2022-08-10T13:13:00.104Z,52.18
2022-08-10T13:14:24.256Z,52.18
2022-08-10T13:15:49.471Z,52.81
2022-08-10T13:16:45.617Z,53.03
2022-08-10T13:42:46.199Z,55.84
2022-08-10T13:43:56.413Z,55.22
2022-08-10T13:45:09.252Z,55.23
2022-08-10T13:46:22.641Z,55.90
2022-08-10T13:47:32.179Z,56.05
2022-08-10T13:48:40.610Z,56.19
2022-08-10T13:49:57.193Z,56.00
2022-08-10T13:51:04.160Z,55.84
2022-08-10T13:53:28.789Z,55.74
2022-08-10T13:54:35.534Z,55.83
2022-08-10T13:55:55.544Z,55.97
2022-08-10T13:56:56.684Z,55.94
2022-08-10T13:58:04.366Z,56.20
2022-08-10T13:59:11.671Z,56.45
2022-08-10T14:00:36.851Z,56.39
2022-08-10T14:01:31.355Z,56.48
2022-08-10T14:02:50.234Z,56.54
2022-08-10T14:03:55.037Z,56.25
2022-08-10T14:04:59.801Z,56.20
2022-08-10T14:06:05.085Z,56.22
2022-08-10T14:07:12.473Z,55.88
2022-08-10T14:08:19.644Z,56.17
2022-08-10T14:09:29.556Z,56.16
2022-08-10T14:11:09.902Z,56.21
2022-08-10T14:11:53.251Z,56.16
2022-08-10T14:13:01.036Z,55.51
2022-08-10T14:15:24.078Z,55.88
2022-08-10T14:16:32.646Z,56.05
2022-08-10T14:17:44.155Z,55.39
2022-08-10T14:18:47.446Z,55.47
2022-08-10T14:19:59.270Z,54.66
2022-08-10T14:21:05.107Z,55.02
2022-08-10T14:22:08.310Z,54.96
2022-08-10T14:23:15.947Z,54.70
2022-08-10T14:24:25.060Z,54.57
2022-08-10T14:25:29.396Z,55.02
2022-08-10T14:26:33.294Z,55.48
2022-08-10T14:28:03.071Z,55.37
2022-08-10T14:28:57.732Z,55.38
2022-08-10T14:30:03.225Z,55.40
2022-08-10T14:31:09.066Z,55.18
2022-08-10T14:32:16.539Z,55.10
2022-08-10T14:33:22.618Z,55.22
2022-08-10T14:36:15.553Z,55.61
2022-08-10T14:36:19.385Z,55.88
2022-08-10T14:36:50.750Z,56.25
2022-08-10T14:38:00.734Z,56.13
2022-08-10T14:39:07.989Z,56.13
2022-08-10T14:40:16.060Z,56.31
2022-08-10T14:42:48.075Z,56.42
2022-08-10T14:43:54.351Z,56.52
2022-08-10T14:45:01.026Z,56.59
2022-08-10T14:46:08.960Z,56.54
2022-08-10T14:47:53.929Z,56.48
2022-08-10T14:48:33.162Z,56.50
2022-08-10T14:49:57.370Z,56.41
2022-08-10T14:50:55.008Z,56.28
2022-08-10T14:52:04.456Z,56.24
2022-08-10T14:53:14.104Z,56.41
2022-08-10T14:54:19.836Z,55.99
2022-08-10T14:55:25.373Z,56.11
2022-08-10T14:56:33.870Z,56.89
2022-08-10T14:58:17.091Z,56.90
2022-08-10T14:59:06.111Z,56.84
2022-08-10T15:00:26.237Z,56.58
2022-08-10T15:01:19.215Z,56.56
2022-08-10T15:02:38.823Z,57.13
2022-08-10T15:04:01.287Z,57.15
2022-08-10T15:04:44.708Z,56.88
2022-08-10T15:05:49.262Z,57.15
2022-08-10T15:07:02.556Z,56.94
2022-08-10T15:08:06.524Z,56.76
2022-08-10T15:09:19.907Z,56.88
2022-08-10T15:10:25.537Z,56.40
2022-08-10T15:12:13.772Z,56.55
2022-08-10T15:12:45.180Z,56.10
2022-08-10T15:14:12.338Z,56.08
2022-08-10T15:15:01.419Z,56.26
2022-08-10T15:16:13.024Z,56.09
2022-08-10T15:17:16.462Z,56.32
2022-08-10T15:18:26.775Z,56.73
2022-08-10T15:20:04.566Z,57.25
2022-08-10T15:20:42.311Z,57.29
2022-08-10T15:22:01.264Z,57.11
2022-08-10T15:23:03.654Z,56.94
2022-08-10T15:24:11.273Z,56.81
2022-08-10T15:25:25.174Z,56.72
2022-08-10T15:26:29.263Z,57.12
2022-08-10T15:27:54.984Z,57.27
2022-08-10T15:29:22.692Z,57.48
2022-08-10T15:30:00.585Z,57.33
2022-08-10T15:31:06.491Z,57.06
2022-08-10T15:32:29.495Z,56.93
2022-08-10T15:34:05.021Z,56.95
2022-08-10T15:35:31.189Z,56.91
2022-08-10T15:37:16.994Z,56.83
2022-08-10T15:38:08.341Z,56.83
2022-08-10T15:40:22.478Z,57.13
2022-08-10T15:40:32.411Z,57.31
2022-08-10T15:41:58.896Z,57.24
2022-08-10T15:44:13.225Z,58.24
2022-08-10T15:45:18.340Z,58.42
2022-08-10T15:46:29.896Z,58.54
2022-08-10T15:47:45.830Z,58.51
2022-08-10T15:48:57.059Z,58.10
2022-08-10T15:50:06.565Z,58.12
2022-08-10T15:51:28.483Z,57.89
2022-08-10T15:52:39.815Z,58.18
2022-08-10T15:53:50.070Z,58.28
2022-08-10T15:55:42.796Z,57.73
2022-08-10T15:56:31.515Z,57.77
2022-08-10T15:57:39.094Z,57.73
2022-08-10T15:58:51.893Z,57.72
2022-08-10T16:00:10.889Z,58.27
2022-08-10T16:02:04.201Z,58.33
2022-08-10T16:02:33.169Z,58.91
2022-08-10T16:03:41.948Z,58.99
2022-08-10T16:05:12.123Z,58.99
2022-08-10T16:06:22.278Z,59.15
2022-08-10T16:08:57.229Z,59.04
2022-08-10T16:10:11.001Z,59.22
2022-08-10T16:11:14.462Z,59.92
2022-08-10T16:12:30.149Z,60.72
2022-08-10T16:13:59.759Z,61.47
2022-08-10T16:14:44.012Z,60.66
2022-08-10T16:15:57.473Z,62.73
2022-08-10T16:17:04.324Z,61.59
2022-08-10T16:18:13.712Z,61.28
2022-08-10T16:19:24.287Z,62.15
2022-08-10T16:20:31.630Z,63.51
2022-08-10T16:21:40.126Z,62.98
2022-08-10T16:22:45.825Z,64.99
2022-08-10T16:24:15.127Z,62.56
2022-08-10T16:25:17.078Z,65.20
2022-08-10T16:26:27.853Z,65.49
2022-08-10T16:27:36.242Z,63.73
2022-08-10T16:28:46.986Z,64.36
2022-08-10T16:30:01.691Z,66.69
2022-08-10T16:31:10.232Z,66.94
2022-08-10T16:32:16.847Z,68.09
2022-08-10T16:33:27.552Z,69.54
2022-08-10T16:34:35.348Z,68.10
2022-08-10T16:35:49.482Z,66.89
2022-08-10T16:37:03.918Z,69.08
2022-08-10T16:38:10.454Z,69.72
2022-08-10T16:39:58.170Z,70.56
2022-08-10T16:40:31.004Z,69.62
2022-08-10T16:42:02.824Z,69.99
2022-08-10T16:42:47.447Z,68.93
2022-08-10T16:43:51.580Z,69.58
2022-08-10T16:45:16.037Z,68.05
2022-08-10T16:46:23.962Z,71.56
2022-08-10T16:47:30.233Z,70.44
2022-08-10T16:48:49.360Z,69.14
2022-08-10T16:49:43.782Z,68.81
2022-08-10T16:50:57.676Z,70.80
2022-08-10T16:52:03.475Z,70.31
2022-08-10T16:53:09.277Z,71.00
2022-08-10T16:54:22.333Z,70.36
2022-08-10T16:55:47.925Z,70.73
2022-08-10T16:56:48.612Z,72.03
2022-08-10T16:57:48.908Z,71.12
2022-08-10T17:00:12.321Z,72.02
2022-08-10T17:01:19.590Z,72.73
2022-08-10T17:02:26.839Z,72.67
2022-08-10T17:04:08.682Z,70.27
2022-08-10T17:04:51.609Z,72.12
2022-08-10T17:06:09.905Z,72.18